sensor_id;sensor_type;location;lat;lon;timestamp;pressure;altitude;pressure_sealevel;temperature;humidity
59055;BME280;44845;51.444;7.460;2022-11-15T00:01:18;99102.91;;;9.89;80.78
59055;BME280;44845;51.444;7.460;2022-11-15T00:03:44;99103.81;;;9.88;80.95
59055;BME280;44845;51.444;7.460;2022-11-15T00:06:09;99090.59;;;9.94;80.46
59055;BME280;44845;51.444;7.460;2022-11-15T00:08:34;99090.53;;;9.97;80.51
59055;BME280;44845;51.444;7.460;2022-11-15T00:11:01;99099.31;;;9.95;80.72
59055;BME280;44845;51.444;7.460;2022-11-15T00:13:28;99101.06;;;9.94;81.07
59055;BME280;44845;51.444;7.460;2022-11-15T00:15:56;99090.59;;;9.94;81.17
59055;BME280;44845;51.444;7.460;2022-11-15T00:18:22;99088.81;;;9.96;81.52
59055;BME280;44845;51.444;7.460;2022-11-15T00:20:47;99088.75;;;9.99;81.34
59055;BME280;44845;51.444;7.460;2022-11-15T00:23:12;99079.16;;;10.00;81.61
59055;BME280;44845;51.444;7.460;2022-11-15T00:25:38;99085.22;;;10.02;81.94
59055;BME280;44845;51.444;7.460;2022-11-15T00:28:03;99085.97;;;10.09;81.36
59055;BME280;44845;51.444;7.460;2022-11-15T00:30:29;99085.91;;;10.12;81.52
59055;BME280;44845;51.444;7.460;2022-11-15T00:32:55;99075.34;;;10.17;81.32
59055;BME280;44845;51.444;7.460;2022-11-15T00:35:20;99074.47;;;10.16;81.13
59055;BME280;44845;51.444;7.460;2022-11-15T00:37:46;99082.38;;;10.14;81.31
59055;BME280;44845;51.444;7.460;2022-11-15T00:40:12;99081.34;;;10.23;81.34
59055;BME280;44845;51.444;7.460;2022-11-15T00:42:38;99076.13;;;10.20;81.36
59055;BME280;44845;51.444;7.460;2022-11-15T00:45:04;99077.84;;;10.24;81.25
59055;BME280;44845;51.444;7.460;2022-11-15T00:47:29;99079.53;;;10.25;81.11
59055;BME280;44845;51.444;7.460;2022-11-15T00:49:55;99075.91;;;10.33;80.90
59055;BME280;44845;51.444;7.460;2022-11-15T00:52:20;99072.47;;;10.31;80.96
59055;BME280;44845;51.444;7.460;2022-11-15T00:54:46;99071.41;;;10.40;80.72
59055;BME280;44845;51.444;7.460;2022-11-15T00:57:11;99073.19;;;10.39;80.70
59055;BME280;44845;51.444;7.460;2022-11-15T00:59:36;99074.06;;;10.38;81.01
59055;BME280;44845;51.444;7.460;2022-11-15T01:02:02;99066.16;;;10.40;80.91
59055;BME280;44845;51.444;7.460;2022-11-15T01:04:27;99073.97;;;10.43;81.16
59055;BME280;44845;51.444;7.460;2022-11-15T01:06:53;99076.50;;;10.49;81.07
59055;BME280;44845;51.444;7.460;2022-11-15T01:09:18;99079.09;;;10.51;80.91
59055;BME280;44845;51.444;7.460;2022-11-15T01:11:44;99072.94;;;10.50;80.66
59055;BME280;44845;51.444;7.460;2022-11-15T01:14:09;99078.25;;;10.48;80.69
59055;BME280;44845;51.444;7.460;2022-11-15T01:16:34;99072.88;;;10.56;80.58
59055;BME280;44845;51.444;7.460;2022-11-15T01:19:00;99075.47;;;10.58;80.61
59055;BME280;44845;51.444;7.460;2022-11-15T01:21:25;99076.41;;;10.54;80.75
59055;BME280;44845;51.444;7.460;2022-11-15T01:23:55;99082.41;;;10.61;80.70
59055;BME280;44845;51.444;7.460;2022-11-15T01:26:21;99077.19;;;10.59;80.76
59055;BME280;44845;51.444;7.460;2022-11-15T01:28:46;99083.16;;;10.66;80.78
59055;BME280;44845;51.444;7.460;2022-11-15T01:31:15;99080.56;;;10.66;80.49
59055;BME280;44845;51.444;7.460;2022-11-15T01:33:41;99078.91;;;10.60;80.81
59055;BME280;44845;51.444;7.460;2022-11-15T01:36:11;99078.91;;;10.62;80.96
59055;BME280;44845;51.444;7.460;2022-11-15T01:38:37;99071.81;;;10.65;80.82
59055;BME280;44845;51.444;7.460;2022-11-15T01:41:03;99072.59;;;10.70;80.61
59055;BME280;44845;51.444;7.460;2022-11-15T01:43:32;99063.91;;;10.68;80.60
59055;BME280;44845;51.444;7.460;2022-11-15T01:48:46;99061.28;;;10.68;80.53
59055;BME280;44845;51.444;7.460;2022-11-15T01:51:13;99062.91;;;10.73;80.64
59055;BME280;44845;51.444;7.460;2022-11-15T01:53:43;99059.47;;;10.70;80.62
59055;BME280;44845;51.444;7.460;2022-11-15T01:56:14;99052.44;;;10.73;80.70
59055;BME280;44845;51.444;7.460;2022-11-15T01:58:41;99045.38;;;10.75;80.30
59055;BME280;44845;51.444;7.460;2022-11-15T02:01:08;99055.00;;;10.74;80.41
59055;BME280;44845;51.444;7.460;2022-11-15T02:03:43;99048.00;;;10.75;80.43
59055;BME280;44845;51.444;7.460;2022-11-15T02:06:11;99046.94;;;10.85;79.92
59055;BME280;44845;51.444;7.460;2022-11-15T02:08:36;99052.31;;;10.79;80.15
59055;BME280;44845;51.444;7.460;2022-11-15T02:11:07;99047.13;;;10.76;80.24
59055;BME280;44845;51.444;7.460;2022-11-15T02:13:32;99046.19;;;10.78;80.13
59055;BME280;44845;51.444;7.460;2022-11-15T02:16:12;99047.06;;;10.79;80.21
59055;BME280;44845;51.444;7.460;2022-11-15T02:18:43;99047.91;;;10.79;80.18
59055;BME280;44845;51.444;7.460;2022-11-15T02:22:04;99041.88;;;10.76;80.64
59055;BME280;44845;51.444;7.460;2022-11-15T02:24:22;99038.22;;;10.83;80.42
59055;BME280;44845;51.444;7.460;2022-11-15T02:32:18;99036.28;;;10.91;80.03
59055;BME280;44845;51.444;7.460;2022-11-15T02:34:57;99034.69;;;10.84;80.28
59055;BME280;44845;51.444;7.460;2022-11-15T02:37:47;99033.75;;;10.87;80.31
59055;BME280;44845;51.444;7.460;2022-11-15T02:43:09;99038.19;;;10.85;80.13
59055;BME280;44845;51.444;7.460;2022-11-15T02:46:02;99042.50;;;10.87;80.10
59055;BME280;44845;51.444;7.460;2022-11-15T02:48:30;99025.94;;;10.85;80.07
59055;BME280;44845;51.444;7.460;2022-11-15T02:50:57;99026.00;;;10.82;79.97
59055;BME280;44845;51.444;7.460;2022-11-15T02:53:27;99025.13;;;10.81;79.88
59055;BME280;44845;51.444;7.460;2022-11-15T02:55:53;99023.44;;;10.80;79.89
59055;BME280;44845;51.444;7.460;2022-11-15T03:04:35;99020.84;;;10.79;80.39
59055;BME280;44845;51.444;7.460;2022-11-15T03:07:12;99020.81;;;10.80;80.41
59055;BME280;44845;51.444;7.460;2022-11-15T03:09:50;99022.56;;;10.80;80.24
59055;BME280;44845;51.444;7.460;2022-11-15T03:12:27;99015.50;;;10.82;80.49
59055;BME280;44845;51.444;7.460;2022-11-15T03:15:04;99017.25;;;10.83;80.39
59055;BME280;44845;51.444;7.460;2022-11-15T03:17:34;99019.03;;;10.81;80.61
59055;BME280;44845;51.444;7.460;2022-11-15T03:20:03;99017.19;;;10.86;80.64
59055;BME280;44845;51.444;7.460;2022-11-15T03:22:35;99025.06;;;10.85;80.77
59055;BME280;44845;51.444;7.460;2022-11-15T03:25:05;99019.81;;;10.85;81.06
59055;BME280;44845;51.444;7.460;2022-11-15T03:27:36;99022.38;;;10.88;80.39
59055;BME280;44845;51.444;7.460;2022-11-15T03:30:05;99018.00;;;10.88;80.83
59055;BME280;44845;51.444;7.460;2022-11-15T03:32:36;99027.53;;;10.92;80.67
59055;BME280;44845;51.444;7.460;2022-11-15T03:35:10;99025.88;;;10.88;81.00
59055;BME280;44845;51.444;7.460;2022-11-15T03:37:42;99031.88;;;10.94;80.83
59055;BME280;44845;51.444;7.460;2022-11-15T03:40:09;99027.47;;;10.96;80.54
59055;BME280;44845;51.444;7.460;2022-11-15T03:45:43;99030.00;;;10.99;80.47
59055;BME280;44845;51.444;7.460;2022-11-15T03:48:14;99030.84;;;11.01;80.92
59055;BME280;44845;51.444;7.460;2022-11-15T03:50:42;99027.53;;;10.92;81.05
59055;BME280;44845;51.444;7.460;2022-11-15T03:53:08;99037.16;;;10.92;81.05
59055;BME280;44845;51.444;7.460;2022-11-15T03:55:33;99025.78;;;10.91;81.13
59055;BME280;44845;51.444;7.460;2022-11-15T03:58:00;99017.81;;;10.96;81.32
59055;BME280;44845;51.444;7.460;2022-11-15T04:00:26;99016.06;;;10.97;81.03
59055;BME280;44845;51.444;7.460;2022-11-15T04:02:51;99002.88;;;11.00;80.96
59055;BME280;44845;51.444;7.460;2022-11-15T04:05:17;98999.50;;;10.95;81.20
59055;BME280;44845;51.444;7.460;2022-11-15T04:07:42;98992.38;;;11.00;80.94
59055;BME280;44845;51.444;7.460;2022-11-15T04:10:09;98996.75;;;11.01;81.13
59055;BME280;44845;51.444;7.460;2022-11-15T04:12:37;98997.63;;;11.00;81.29
59055;BME280;44845;51.444;7.460;2022-11-15T04:15:09;98994.94;;;11.03;80.77
59055;BME280;44845;51.444;7.460;2022-11-15T04:17:46;98994.91;;;11.04;80.77
59055;BME280;44845;51.444;7.460;2022-11-15T04:20:23;99001.84;;;11.07;80.65
59055;BME280;44845;51.444;7.460;2022-11-15T04:23:21;98988.72;;;11.07;80.47
59055;BME280;44845;51.444;7.460;2022-11-15T04:26:21;98998.38;;;11.05;80.61
59055;BME280;44845;51.444;7.460;2022-11-15T04:28:46;98995.69;;;11.08;80.62
59055;BME280;44845;51.444;7.460;2022-11-15T04:31:30;98994.03;;;11.04;80.94
59055;BME280;44845;51.444;7.460;2022-11-15T04:33:56;98988.78;;;11.04;80.76
59055;BME280;44845;51.444;7.460;2022-11-15T04:36:22;98994.03;;;11.04;80.78
59055;BME280;44845;51.444;7.460;2022-11-15T04:39:06;98995.75;;;11.05;80.71
59055;BME280;44845;51.444;7.460;2022-11-15T04:41:31;99000.25;;;11.00;81.39
59055;BME280;44845;51.444;7.460;2022-11-15T04:43:56;99001.06;;;11.02;81.23
59055;BME280;44845;51.444;7.460;2022-11-15T04:46:23;98998.44;;;11.02;81.38
59055;BME280;44845;51.444;7.460;2022-11-15T04:48:49;98997.47;;;11.06;81.07
59055;BME280;44845;51.444;7.460;2022-11-15T04:51:14;99003.56;;;11.08;80.89
59055;BME280;44845;51.444;7.460;2022-11-15T04:53:40;99002.66;;;11.09;81.04
59055;BME280;44845;51.444;7.460;2022-11-15T04:56:06;99001.78;;;11.09;81.04
59055;BME280;44845;51.444;7.460;2022-11-15T04:58:31;99000.94;;;11.08;81.07
59055;BME280;44845;51.444;7.460;2022-11-15T05:00:56;99000.84;;;11.11;80.76
59055;BME280;44845;51.444;7.460;2022-11-15T05:03:22;98998.16;;;11.14;80.65
59055;BME280;44845;51.444;7.460;2022-11-15T05:06:06;98990.22;;;11.18;80.68
59055;BME280;44845;51.444;7.460;2022-11-15T05:08:31;98984.06;;;11.19;80.81
59055;BME280;44845;51.444;7.460;2022-11-15T05:10:57;98990.34;;;11.13;80.76
59055;BME280;44845;51.444;7.460;2022-11-15T05:13:22;98973.66;;;11.15;80.68
59055;BME280;44845;51.444;7.460;2022-11-15T05:15:47;98982.38;;;11.16;80.55
59055;BME280;44845;51.444;7.460;2022-11-15T05:18:13;98986.69;;;11.19;81.02
59055;BME280;44845;51.444;7.460;2022-11-15T05:20:38;98980.66;;;11.15;80.99
59055;BME280;44845;51.444;7.460;2022-11-15T05:23:04;98984.97;;;11.18;80.56
59055;BME280;44845;51.444;7.460;2022-11-15T05:25:29;98986.03;;;11.09;80.98
59055;BME280;44845;51.444;7.460;2022-11-15T05:27:55;98991.41;;;11.04;81.34
59055;BME280;44845;51.444;7.460;2022-11-15T05:30:20;98987.06;;;11.03;81.76
59055;BME280;44845;51.444;7.460;2022-11-15T05:32:45;98985.28;;;11.05;81.37
59055;BME280;44845;51.444;7.460;2022-11-15T05:35:20;98984.97;;;11.18;81.36
59055;BME280;44845;51.444;7.460;2022-11-15T05:37:49;98988.38;;;11.21;81.15
59055;BME280;44845;51.444;7.460;2022-11-15T05:40:14;98991.00;;;11.21;81.04
59055;BME280;44845;51.444;7.460;2022-11-15T05:42:40;98978.75;;;11.22;81.08
59055;BME280;44845;51.444;7.460;2022-11-15T05:45:06;98974.31;;;11.24;80.76
59055;BME280;44845;51.444;7.460;2022-11-15T05:47:34;98980.50;;;11.21;80.99
59055;BME280;44845;51.444;7.460;2022-11-15T05:50:00;98974.25;;;11.27;80.92
59055;BME280;44845;51.444;7.460;2022-11-15T05:52:30;98963.81;;;11.24;80.99
59055;BME280;44845;51.444;7.460;2022-11-15T05:54:58;98972.59;;;11.23;81.02
59055;BME280;44845;51.444;7.460;2022-11-15T05:57:24;98976.06;;;11.25;80.88
59055;BME280;44845;51.444;7.460;2022-11-15T05:59:49;98971.69;;;11.25;80.82
59055;BME280;44845;51.444;7.460;2022-11-15T06:02:15;98970.88;;;11.22;80.83
59055;BME280;44845;51.444;7.460;2022-11-15T06:04:40;98968.25;;;11.22;81.14
59055;BME280;44845;51.444;7.460;2022-11-15T06:07:06;98969.06;;;11.24;80.91
59055;BME280;44845;51.444;7.460;2022-11-15T06:09:31;98977.09;;;11.18;81.39
59055;BME280;44845;51.444;7.460;2022-11-15T06:11:56;98982.34;;;11.18;81.54
59055;BME280;44845;51.444;7.460;2022-11-15T06:14:21;98979.63;;;11.21;81.16
59055;BME280;44845;51.444;7.460;2022-11-15T06:16:47;98985.69;;;11.24;81.12
59055;BME280;44845;51.444;7.460;2022-11-15T06:19:12;98986.56;;;11.25;81.17
59055;BME280;44845;51.444;7.460;2022-11-15T06:21:37;98986.56;;;11.25;80.98
59055;BME280;44845;51.444;7.460;2022-11-15T06:24:04;98993.50;;;11.26;81.21
59055;BME280;44845;51.444;7.460;2022-11-15T06:26:29;98991.69;;;11.30;81.01
59055;BME280;44845;51.444;7.460;2022-11-15T06:28:54;98997.91;;;11.25;80.88
59055;BME280;44845;51.444;7.460;2022-11-15T06:31:20;98996.88;;;11.31;80.69
59055;BME280;44845;51.444;7.460;2022-11-15T06:33:46;98999.50;;;11.31;80.81
59055;BME280;44845;51.444;7.460;2022-11-15T06:36:12;98997.06;;;11.25;80.84
59055;BME280;44845;51.444;7.460;2022-11-15T06:38:42;98997.81;;;11.30;80.50
59055;BME280;44845;51.444;7.460;2022-11-15T06:41:09;99000.44;;;11.30;80.60
59055;BME280;44845;51.444;7.460;2022-11-15T06:43:35;99017.13;;;11.26;80.61
59055;BME280;44845;51.444;7.460;2022-11-15T06:46:02;99021.34;;;11.33;80.29
59055;BME280;44845;51.444;7.460;2022-11-15T06:48:28;99014.38;;;11.32;80.08
59055;BME280;44845;51.444;7.460;2022-11-15T06:50:56;99016.00;;;11.36;79.99
59055;BME280;44845;51.444;7.460;2022-11-15T06:53:22;99013.28;;;11.41;79.79
59055;BME280;44845;51.444;7.460;2022-11-15T06:55:47;99019.47;;;11.38;79.78
59055;BME280;44845;51.444;7.460;2022-11-15T06:58:13;99018.56;;;11.40;79.37
59055;BME280;44845;51.444;7.460;2022-11-15T07:00:38;99024.63;;;11.42;79.24
59055;BME280;44845;51.444;7.460;2022-11-15T07:03:04;99040.31;;;11.45;79.24
59055;BME280;44845;51.444;7.460;2022-11-15T07:05:29;99035.06;;;11.45;79.19
59055;BME280;44845;51.444;7.460;2022-11-15T07:07:56;99031.47;;;11.49;79.06
59055;BME280;44845;51.444;7.460;2022-11-15T07:10:23;99034.97;;;11.48;79.13
59055;BME280;44845;51.444;7.460;2022-11-15T07:12:53;99043.78;;;11.45;79.14
59055;BME280;44845;51.444;7.460;2022-11-15T07:15:21;99040.31;;;11.45;79.02
59055;BME280;44845;51.444;7.460;2022-11-15T07:17:46;99037.72;;;11.43;78.64
59055;BME280;44845;51.444;7.460;2022-11-15T07:20:12;99044.72;;;11.44;78.60
59055;BME280;44845;51.444;7.460;2022-11-15T07:22:39;99038.63;;;11.42;78.38
59055;BME280;44845;51.444;7.460;2022-11-15T07:25:04;99042.03;;;11.46;78.27
59055;BME280;44845;51.444;7.460;2022-11-15T07:27:30;99037.59;;;11.48;78.25
59055;BME280;44845;51.444;7.460;2022-11-15T07:29:55;99044.72;;;11.44;77.56
59055;BME280;44845;51.444;7.460;2022-11-15T07:32:20;99050.97;;;11.38;77.89
59055;BME280;44845;51.444;7.460;2022-11-15T07:34:46;99054.63;;;11.31;78.03
59055;BME280;44845;51.444;7.460;2022-11-15T07:37:11;99055.38;;;11.36;77.66
59055;BME280;44845;51.444;7.460;2022-11-15T07:39:37;99050.09;;;11.38;77.59
59055;BME280;44845;51.444;7.460;2022-11-15T07:42:03;99051.13;;;11.32;77.31
59055;BME280;44845;51.444;7.460;2022-11-15T07:44:47;99060.75;;;11.32;77.61
59055;BME280;44845;51.444;7.460;2022-11-15T07:47:12;99053.84;;;11.28;77.55
59055;BME280;44845;51.444;7.460;2022-11-15T07:49:38;99058.25;;;11.27;77.75
59055;BME280;44845;51.444;7.460;2022-11-15T07:52:03;99053.75;;;11.31;77.63
59055;BME280;44845;51.444;7.460;2022-11-15T07:54:29;99064.47;;;11.21;77.82
59055;BME280;44845;51.444;7.460;2022-11-15T07:56:54;99060.81;;;11.30;77.52
59055;BME280;44845;51.444;7.460;2022-11-15T07:59:20;99063.44;;;11.30;77.32
59055;BME280;44845;51.444;7.460;2022-11-15T08:01:45;99067.00;;;11.26;77.16
59055;BME280;44845;51.444;7.460;2022-11-15T08:04:11;99068.81;;;11.24;76.97
59055;BME280;44845;51.444;7.460;2022-11-15T08:06:36;99065.28;;;11.25;76.65
59055;BME280;44845;51.444;7.460;2022-11-15T08:09:02;99065.34;;;11.22;76.84
59055;BME280;44845;51.444;7.460;2022-11-15T08:11:28;99066.25;;;11.21;76.63
59055;BME280;44845;51.444;7.460;2022-11-15T08:13:53;99065.13;;;11.31;76.63
59055;BME280;44845;51.444;7.460;2022-11-15T08:16:18;99056.44;;;11.29;76.61
59055;BME280;44845;51.444;7.460;2022-11-15T08:18:44;99059.97;;;11.28;76.68
59055;BME280;44845;51.444;7.460;2022-11-15T08:21:11;99048.69;;;11.24;76.40
59055;BME280;44845;51.444;7.460;2022-11-15T08:23:39;99060.25;;;11.15;75.94
59055;BME280;44845;51.444;7.460;2022-11-15T08:26:05;99055.69;;;11.24;76.07
59055;BME280;44845;51.444;7.460;2022-11-15T08:28:31;99056.59;;;11.23;76.00
59055;BME280;44845;51.444;7.460;2022-11-15T08:30:57;99063.44;;;11.30;75.79
59055;BME280;44845;51.444;7.460;2022-11-15T08:33:23;99052.72;;;11.38;75.82
59055;BME280;44845;51.444;7.460;2022-11-15T08:35:48;99054.56;;;11.34;75.75
59055;BME280;44845;51.444;7.460;2022-11-15T08:38:14;99060.75;;;11.32;75.18
59055;BME280;44845;51.444;7.460;2022-11-15T08:40:39;99053.63;;;11.37;75.05
59055;BME280;44845;51.444;7.460;2022-11-15T08:43:05;99050.06;;;11.40;75.02
59055;BME280;44845;51.444;7.460;2022-11-15T08:45:31;99047.56;;;11.35;75.13
59055;BME280;44845;51.444;7.460;2022-11-15T08:47:57;99043.91;;;11.41;74.52
59055;BME280;44845;51.444;7.460;2022-11-15T08:50:22;99049.03;;;11.45;74.47
59055;BME280;44845;51.444;7.460;2022-11-15T08:52:48;99045.56;;;11.45;74.71
59055;BME280;44845;51.444;7.460;2022-11-15T08:55:14;99056.09;;;11.45;74.78
59055;BME280;44845;51.444;7.460;2022-11-15T08:57:39;99046.34;;;11.48;74.29
59055;BME280;44845;51.444;7.460;2022-11-15T09:00:05;99048.03;;;11.53;74.39
59055;BME280;44845;51.444;7.460;2022-11-15T09:02:31;99038.53;;;11.47;74.13
59055;BME280;44845;51.444;7.460;2022-11-15T09:04:57;99039.34;;;11.49;74.23
59055;BME280;44845;51.444;7.460;2022-11-15T09:07:22;99051.53;;;11.52;73.91
59055;BME280;44845;51.444;7.460;2022-11-15T09:09:47;99044.53;;;11.51;73.43
59055;BME280;44845;51.444;7.460;2022-11-15T09:12:13;99050.66;;;11.53;73.74
59055;BME280;44845;51.444;7.460;2022-11-15T09:14:38;99043.69;;;12.20;85.00
59055;BME280;44845;51.444;7.460;2022-11-15T09:17:07;99041.59;;;12.64;78.55
59055;BME280;44845;51.444;7.460;2022-11-15T09:19:33;99034.56;;;12.94;74.65
59055;BME280;44845;51.444;7.460;2022-11-15T09:21:59;99033.00;;;13.16;68.56
59055;BME280;44845;51.444;7.460;2022-11-15T09:24:24;99026.69;;;12.93;68.36
59055;BME280;44845;51.444;7.460;2022-11-15T09:26:51;99028.22;;;12.71;69.08
59055;BME280;44845;51.444;7.460;2022-11-15T09:29:17;99028.75;;;12.53;68.96
59055;BME280;44845;51.444;7.460;2022-11-15T09:31:42;99029.06;;;12.42;69.75
59055;BME280;44845;51.444;7.460;2022-11-15T09:34:07;99019.91;;;12.25;70.40
59055;BME280;44845;51.444;7.460;2022-11-15T09:36:33;99021.03;;;12.14;70.61
59055;BME280;44845;51.444;7.460;2022-11-15T09:38:58;99014.06;;;12.12;70.81
59055;BME280;44845;51.444;7.460;2022-11-15T09:41:48;99013.44;;;12.03;70.85
59055;BME280;44845;51.444;7.460;2022-11-15T09:44:42;99004.91;;;11.95;70.58
59055;BME280;44845;51.444;7.460;2022-11-15T09:50:20;99013.81;;;11.89;70.47
59055;BME280;44845;51.444;7.460;2022-11-15T09:52:52;99011.31;;;11.85;70.27
59055;BME280;44845;51.444;7.460;2022-11-15T09:55:17;99009.66;;;11.80;70.15
59055;BME280;44845;51.444;7.460;2022-11-15T09:58:00;99009.91;;;11.71;70.44
59055;BME280;44845;51.444;7.460;2022-11-15T10:00:38;99009.34;;;11.58;70.23
59055;BME280;44845;51.444;7.460;2022-11-15T10:05:47;99013.41;;;11.70;70.27
59055;BME280;44845;51.444;7.460;2022-11-15T10:10:59;99008.91;;;11.77;69.80
59055;BME280;44845;51.444;7.460;2022-11-15T10:13:26;99003.53;;;11.80;70.13
59055;BME280;44845;51.444;7.460;2022-11-15T10:15:55;98997.56;;;11.75;69.86
59055;BME280;44845;51.444;7.460;2022-11-15T10:18:35;98999.16;;;11.80;69.17
59055;BME280;44845;51.444;7.460;2022-11-15T10:21:13;98984.50;;;11.71;68.79
59055;BME280;44845;51.444;7.460;2022-11-15T10:23:40;98972.19;;;11.74;68.92
59055;BME280;44845;51.444;7.460;2022-11-15T10:26:08;98970.63;;;11.66;67.74
59055;BME280;44845;51.444;7.460;2022-11-15T10:28:35;98964.25;;;11.75;67.34
59055;BME280;44845;51.444;7.460;2022-11-15T10:31:01;98956.50;;;11.70;67.95
59055;BME280;44845;51.444;7.460;2022-11-15T10:33:30;98956.38;;;11.75;68.70
59055;BME280;44845;51.444;7.460;2022-11-15T10:41:13;98947.88;;;11.65;67.54
59055;BME280;44845;51.444;7.460;2022-11-15T10:43:39;98937.63;;;11.57;67.42
59055;BME280;44845;51.444;7.460;2022-11-15T10:46:22;98934.88;;;11.60;68.00
59055;BME280;44845;51.444;7.460;2022-11-15T10:48:48;98932.19;;;11.64;67.51
59055;BME280;44845;51.444;7.460;2022-11-15T10:51:27;98924.13;;;11.70;67.10
59055;BME280;44845;51.444;7.460;2022-11-15T10:53:56;98919.75;;;11.70;67.71
59055;BME280;44845;51.444;7.460;2022-11-15T10:56:24;98919.09;;;11.62;66.34
59055;BME280;44845;51.444;7.460;2022-11-15T10:58:54;98924.22;;;11.67;67.13
59055;BME280;44845;51.444;7.460;2022-11-15T11:01:23;98920.69;;;11.68;67.26
59055;BME280;44845;51.444;7.460;2022-11-15T11:04:04;98920.69;;;11.68;66.39
59055;BME280;44845;51.444;7.460;2022-11-15T11:06:30;98917.94;;;11.73;66.33
59055;BME280;44845;51.444;7.460;2022-11-15T11:09:22;98912.66;;;11.73;66.30
59055;BME280;44845;51.444;7.460;2022-11-15T11:11:50;98917.09;;;11.72;67.19
59055;BME280;44845;51.444;7.460;2022-11-15T11:14:28;98908.16;;;11.78;66.75
59055;BME280;44845;51.444;7.460;2022-11-15T11:20:18;98907.94;;;11.86;65.29
59055;BME280;44845;51.444;7.460;2022-11-15T11:23:03;98910.91;;;11.75;65.80
59055;BME280;44845;51.444;7.460;2022-11-15T11:25:36;98910.72;;;11.81;65.25
59055;BME280;44845;51.444;7.460;2022-11-15T11:31:09;98902.78;;;11.82;64.84
59055;BME280;44845;51.444;7.460;2022-11-15T11:33:53;98901.97;;;11.80;63.83
59055;BME280;44845;51.444;7.460;2022-11-15T11:36:40;98893.00;;;11.88;63.96
59055;BME280;44845;51.444;7.460;2022-11-15T11:39:42;98884.34;;;11.84;63.43
59055;BME280;44845;51.444;7.460;2022-11-15T11:42:22;98870.41;;;11.82;62.82
59055;BME280;44845;51.444;7.460;2022-11-15T11:45:10;98866.19;;;11.76;62.54
59055;BME280;44845;51.444;7.460;2022-11-15T11:50:27;98871.44;;;11.76;63.09
59055;BME280;44845;51.444;7.460;2022-11-15T11:53:15;98857.56;;;11.71;61.91
59055;BME280;44845;51.444;7.460;2022-11-15T11:55:51;98846.88;;;11.77;61.08
59055;BME280;44845;51.444;7.460;2022-11-15T11:58:21;98846.88;;;11.77;61.36
59055;BME280;44845;51.444;7.460;2022-11-15T12:00:52;98846.72;;;11.83;61.31
59055;BME280;44845;51.444;7.460;2022-11-15T12:03:30;98845.03;;;11.81;61.03
59055;BME280;44845;51.444;7.460;2022-11-15T12:06:04;98843.34;;;11.78;60.24
59055;BME280;44845;51.444;7.460;2022-11-15T12:08:46;98843.44;;;11.75;59.59
59055;BME280;44845;51.444;7.460;2022-11-15T12:11:17;98854.13;;;11.69;59.01
59055;BME280;44845;51.444;7.460;2022-11-15T12:13:48;98845.16;;;11.76;59.08
59055;BME280;44845;51.444;7.460;2022-11-15T12:16:26;98850.22;;;11.82;57.98
59055;BME280;44845;51.444;7.460;2022-11-15T12:18:54;98848.69;;;11.75;59.06
59055;BME280;44845;51.444;7.460;2022-11-15T12:26:50;98849.41;;;11.80;59.25
59055;BME280;44845;51.444;7.460;2022-11-15T12:29:28;98859.94;;;11.80;59.00
59055;BME280;44845;51.444;7.460;2022-11-15T12:31:56;98843.19;;;11.85;59.02
59055;BME280;44845;51.444;7.460;2022-11-15T12:36:53;98844.25;;;11.77;58.39
59055;BME280;44845;51.444;7.460;2022-11-15T12:39:18;98842.53;;;11.76;58.26
59055;BME280;44845;51.444;7.460;2022-11-15T12:41:44;98836.25;;;11.82;59.11
59055;BME280;44845;51.444;7.460;2022-11-15T12:59:53;98810.13;;;12.64;63.17
59055;BME280;44845;51.444;7.460;2022-11-15T13:02:40;98798.94;;;12.84;61.51
59055;BME280;44845;51.444;7.460;2022-11-15T13:12:56;98777.81;;;12.60;59.14
59055;BME280;44845;51.444;7.460;2022-11-15T13:15:52;98774.69;;;12.48;59.64
59055;BME280;44845;51.444;7.460;2022-11-15T13:18:34;98774.13;;;12.38;59.91
59055;BME280;44845;51.444;7.460;2022-11-15T13:21:01;98763.31;;;12.21;60.14
59055;BME280;44845;51.444;7.460;2022-11-15T13:23:26;98764.16;;;12.21;60.29
59055;BME280;44845;51.444;7.460;2022-11-15T13:26:14;98768.50;;;12.22;61.19
59055;BME280;44845;51.444;7.460;2022-11-15T13:28:50;98761.69;;;12.16;60.96
59055;BME280;44845;51.444;7.460;2022-11-15T13:31:36;98753.22;;;12.07;61.33
59055;BME280;44845;51.444;7.460;2022-11-15T13:36:46;98733.88;;;12.08;60.87
59055;BME280;44845;51.444;7.460;2022-11-15T13:39:28;98733.09;;;12.05;61.68
59055;BME280;44845;51.444;7.460;2022-11-15T13:41:53;98738.47;;;12.01;62.32
59055;BME280;44845;51.444;7.460;2022-11-15T13:46:49;98734.94;;;12.02;61.80
59055;BME280;44845;51.444;7.460;2022-11-15T13:49:29;98738.66;;;11.94;61.41
59055;BME280;44845;51.444;7.460;2022-11-15T13:51:55;98741.25;;;11.96;62.08
59055;BME280;44845;51.444;7.460;2022-11-15T13:54:27;98727.41;;;11.91;61.88
59055;BME280;44845;51.444;7.460;2022-11-15T13:56:57;98722.91;;;11.94;61.33
59055;BME280;44845;51.444;7.460;2022-11-15T13:59:30;98733.31;;;11.98;61.96
59055;BME280;44845;51.444;7.460;2022-11-15T14:01:58;98724.53;;;11.99;62.46
59055;BME280;44845;51.444;7.460;2022-11-15T14:04:26;98719.38;;;11.96;62.77
59055;BME280;44845;51.444;7.460;2022-11-15T14:06:58;98714.91;;;11.99;63.12
59055;BME280;44845;51.444;7.460;2022-11-15T14:09:40;98713.97;;;12.00;63.35
59055;BME280;44845;51.444;7.460;2022-11-15T14:12:28;98709.81;;;11.93;64.37
59055;BME280;44845;51.444;7.460;2022-11-15T14:14:54;98705.38;;;11.95;64.31
59055;BME280;44845;51.444;7.460;2022-11-15T14:19:48;98696.91;;;11.87;64.00
59055;BME280;44845;51.444;7.460;2022-11-15T14:22:17;98694.16;;;11.90;64.21
59055;BME280;44845;51.444;7.460;2022-11-15T14:27:31;98688.91;;;11.90;63.83
59055;BME280;44845;51.444;7.460;2022-11-15T14:29:57;98680.84;;;11.94;63.96
59055;BME280;44845;51.444;7.460;2022-11-15T14:32:43;98675.56;;;11.96;63.72
59055;BME280;44845;51.444;7.460;2022-11-15T14:35:17;98666.75;;;11.99;63.40
59055;BME280;44845;51.444;7.460;2022-11-15T14:37:43;98656.09;;;12.02;63.65